createdAt,value
2018-04-11T00:00:09.307Z,4.90
2018-04-11T00:02:36.747Z,4.77
2018-04-11T00:05:04.224Z,4.40
2018-04-11T00:07:31.649Z,4.83
2018-04-11T00:09:59.130Z,4.83
2018-04-11T00:12:26.564Z,5.07
2018-04-11T00:14:54.046Z,5.83
2018-04-11T00:17:21.515Z,6.47
2018-04-11T00:19:49.067Z,5.83
2018-04-11T00:22:16.506Z,7.10
2018-04-11T00:24:43.939Z,7.57
2018-04-11T00:27:11.379Z,6.20
2018-04-11T00:29:39.615Z,7.80
2018-04-11T00:32:07.046Z,8.87
2018-04-11T00:34:34.478Z,8.40
2018-04-11T00:37:01.987Z,8.70
2018-04-11T00:39:29.534Z,9.00
2018-04-11T00:41:56.967Z,8.00
2018-04-11T00:44:24.424Z,9.63
2018-04-11T00:46:51.914Z,8.80
2018-04-11T00:49:19.362Z,8.73
2018-04-11T00:51:46.922Z,8.07
2018-04-11T00:54:14.355Z,9.10
2018-04-11T00:56:42.038Z,9.10
2018-04-11T00:59:09.485Z,8.00
2018-04-11T01:01:36.950Z,9.40
2018-04-11T01:04:04.390Z,10.50
2018-04-11T01:06:31.862Z,8.97
2018-04-11T01:08:59.322Z,9.00
2018-04-11T01:11:26.877Z,8.70
2018-04-11T01:13:54.343Z,9.30
2018-04-11T01:16:21.794Z,9.33
2018-04-11T01:18:49.239Z,8.93
2018-04-11T01:21:16.669Z,9.17
2018-04-11T01:23:44.111Z,8.93
2018-04-11T01:26:12.322Z,10.37
2018-04-11T01:28:39.802Z,10.00
2018-04-11T01:31:07.241Z,10.17
2018-04-11T01:33:34.693Z,10.00
2018-04-11T01:36:02.146Z,10.00
2018-04-11T01:38:29.600Z,10.03
2018-04-11T01:40:57.036Z,9.57
2018-04-11T01:43:24.485Z,9.53
2018-04-11T01:45:52.688Z,8.70
2018-04-11T01:48:20.166Z,9.50
2018-04-11T01:50:47.606Z,9.40
2018-04-11T01:53:15.078Z,9.23
2018-04-11T01:55:42.520Z,9.80
2018-04-11T01:58:09.999Z,8.17
2018-04-11T02:00:37.458Z,6.83
2018-04-11T02:03:04.930Z,6.03
2018-04-11T02:05:32.386Z,5.97
2018-04-11T02:07:59.928Z,5.57
2018-04-11T02:10:27.365Z,5.53
2018-04-11T02:12:54.837Z,5.40
2018-04-11T02:15:22.298Z,5.97
2018-04-11T02:17:49.730Z,5.30
2018-04-11T02:20:17.214Z,5.70
2018-04-11T02:22:44.674Z,5.60
2018-04-11T02:25:12.122Z,6.07
2018-04-11T02:27:39.578Z,5.83
2018-04-11T02:30:07.041Z,6.60
2018-04-11T02:32:34.473Z,6.50
2018-04-11T02:35:01.914Z,6.60
2018-04-11T02:37:29.413Z,6.50
2018-04-11T02:39:56.867Z,6.83
2018-04-11T02:42:24.311Z,6.80
2018-04-11T02:44:51.823Z,6.37
2018-04-11T02:47:19.218Z,5.73
2018-04-11T02:49:46.650Z,5.90
2018-04-11T02:52:14.357Z,5.90
2018-04-11T02:54:41.786Z,4.73
2018-04-11T02:57:09.222Z,6.10
2018-04-11T02:59:37.433Z,5.50
2018-04-11T03:02:04.886Z,5.60
2018-04-11T03:04:32.327Z,5.70
2018-04-11T03:06:59.754Z,5.80
2018-04-11T03:09:27.974Z,5.07
2018-04-11T03:11:55.390Z,5.10
2018-04-11T03:14:23.613Z,5.37
2018-04-11T03:16:51.077Z,5.70
2018-04-11T03:19:18.532Z,5.63
2018-04-11T03:21:45.966Z,4.00
2018-04-11T03:24:13.411Z,4.73
2018-04-11T03:26:40.906Z,5.40
2018-04-11T03:29:08.342Z,5.80
2018-04-11T03:31:35.795Z,5.60
2018-04-11T03:34:03.271Z,5.13
2018-04-11T03:36:30.709Z,5.60
2018-04-11T03:38:58.138Z,4.57
2018-04-11T03:41:26.354Z,5.30
2018-04-11T03:43:53.821Z,5.10
2018-04-11T03:46:21.269Z,5.37
2018-04-11T03:48:49.452Z,5.50
2018-04-11T03:51:16.906Z,4.97
2018-04-11T03:53:44.470Z,4.90
2018-04-11T03:56:11.915Z,5.50
2018-04-11T03:58:39.354Z,5.00
2018-04-11T04:01:06.793Z,5.10
2018-04-11T04:03:34.226Z,5.60
2018-04-11T04:06:02.478Z,5.40
2018-04-11T04:08:29.915Z,6.23
2018-04-11T04:10:57.366Z,5.07
2018-04-11T04:13:36.714Z,6.37
2018-04-11T04:16:16.165Z,6.10
2018-04-11T04:18:55.591Z,6.87
2018-04-11T04:21:23.048Z,7.30
2018-04-11T04:23:50.479Z,8.37
2018-04-11T04:26:18.330Z,8.57
2018-04-11T04:28:45.827Z,8.80
2018-04-11T04:31:13.263Z,9.30
2018-04-11T04:33:40.745Z,9.43
2018-04-11T04:36:08.193Z,9.80
2018-04-11T04:38:35.664Z,10.10
2018-04-11T04:41:03.112Z,8.63
2018-04-11T04:43:30.678Z,10.40
2018-04-11T04:45:58.130Z,9.17
2018-04-11T04:48:26.098Z,10.23
2018-04-11T04:50:53.534Z,9.20
2018-04-11T04:53:20.963Z,9.93
2018-04-11T04:55:49.596Z,10.60
2018-04-11T04:58:17.050Z,10.10
2018-04-11T05:00:44.510Z,11.20
2018-04-11T05:03:11.942Z,10.83
2018-04-11T05:05:39.377Z,12.70
2018-04-11T05:08:06.882Z,11.37
2018-04-11T05:10:34.440Z,12.17
2018-04-11T05:13:01.882Z,14.00
2018-04-11T05:15:29.331Z,14.17
2018-04-11T05:17:56.801Z,12.83
2018-04-11T05:20:24.242Z,13.10
2018-04-11T05:22:51.700Z,13.43
2018-04-11T05:25:19.134Z,13.57
2018-04-11T05:27:46.574Z,13.33
2018-04-11T05:30:14.826Z,13.47
2018-04-11T05:32:42.287Z,14.70
2018-04-11T05:35:09.714Z,12.93
2018-04-11T05:37:37.187Z,12.83
2018-04-11T05:40:04.700Z,13.90
2018-04-11T05:42:32.917Z,12.70
2018-04-11T05:45:00.474Z,12.40
2018-04-11T05:47:28.082Z,11.17
2018-04-11T05:49:56.306Z,10.87
2018-04-11T05:52:23.748Z,11.67
2018-04-11T05:54:51.193Z,10.33
2018-04-11T05:57:18.630Z,11.70
2018-04-11T05:59:46.078Z,10.60
2018-04-11T06:02:14.307Z,9.80
2018-04-11T06:04:41.755Z,10.53
2018-04-11T06:07:09.198Z,9.60
2018-04-11T06:09:36.686Z,9.17
2018-04-11T06:12:04.126Z,8.47
2018-04-11T06:14:31.561Z,9.17
2018-04-11T06:16:59.008Z,8.33
2018-04-11T06:19:26.506Z,9.03
2018-04-11T06:21:53.986Z,8.90
2018-04-11T06:24:22.132Z,9.20
2018-04-11T06:26:49.575Z,9.03
2018-04-11T06:29:17.046Z,9.83
2018-04-11T06:31:44.510Z,9.57
2018-04-11T06:34:12.050Z,8.63
2018-04-11T06:36:39.528Z,9.43
2018-04-11T06:39:07.074Z,9.47
2018-04-11T06:41:34.544Z,10.33
2018-04-11T06:44:01.998Z,10.80
2018-04-11T06:46:29.434Z,10.27
2018-04-11T06:48:56.920Z,10.23
2018-04-11T06:51:24.462Z,10.20
2018-04-11T06:53:51.905Z,10.40
2018-04-11T06:56:19.377Z,10.00
2018-04-11T06:58:46.842Z,10.80
2018-04-11T07:01:14.398Z,10.60
2018-04-11T07:03:41.957Z,11.23
2018-04-11T07:06:09.410Z,9.60
2018-04-11T07:08:36.862Z,10.33
2018-04-11T07:11:04.305Z,10.37
2018-04-11T07:13:31.790Z,11.33
2018-04-11T07:15:59.240Z,9.97
2018-04-11T07:18:27.518Z,10.13
2018-04-11T07:20:54.978Z,10.00
2018-04-11T07:23:22.414Z,9.63
2018-04-11T07:25:49.873Z,9.93
2018-04-11T07:28:17.338Z,10.03
2018-04-11T07:30:44.800Z,9.10
2018-04-11T07:33:13.152Z,9.70
2018-04-11T07:35:40.634Z,9.80
2018-04-11T07:38:08.294Z,9.93
2018-04-11T07:40:35.745Z,10.10
2018-04-11T07:43:03.188Z,10.13
2018-04-11T07:45:30.620Z,10.17
2018-04-11T07:47:58.844Z,10.80
2018-04-11T07:50:26.281Z,10.67
2018-04-11T07:52:53.760Z,11.40
2018-04-11T07:55:21.202Z,11.03
2018-04-11T07:57:48.635Z,10.80
2018-04-11T08:00:16.129Z,10.97
2018-04-11T08:02:43.587Z,13.70
2018-04-11T08:05:11.034Z,10.67
2018-04-11T08:07:38.471Z,10.30
2018-04-11T08:10:06.004Z,11.23
2018-04-11T08:12:33.510Z,10.73
2018-04-11T08:15:00.967Z,10.13
2018-04-11T08:17:28.408Z,10.47
2018-04-11T08:19:55.911Z,10.90
2018-04-11T08:22:23.438Z,10.67
2018-04-11T08:24:50.998Z,9.90
2018-04-11T08:27:18.762Z,10.63
2018-04-11T08:29:46.198Z,10.30
2018-04-11T08:32:13.646Z,10.90
2018-04-11T08:34:41.139Z,10.80
2018-04-11T08:37:08.578Z,11.70
2018-04-11T08:39:36.050Z,10.97
2018-04-11T08:42:03.520Z,11.20
2018-04-11T08:44:30.951Z,12.03
2018-04-11T08:46:58.422Z,11.60
2018-04-11T08:49:25.878Z,12.67
2018-04-11T08:51:53.338Z,11.67
2018-04-11T08:54:20.896Z,11.10
2018-04-11T08:56:48.342Z,12.47
2018-04-11T08:59:15.794Z,13.23
2018-04-11T09:01:43.261Z,11.93
2018-04-11T09:04:10.722Z,14.03
2018-04-11T09:06:38.246Z,12.10
2018-04-11T09:09:05.682Z,14.43
2018-04-11T09:11:33.909Z,13.07
2018-04-11T09:14:01.341Z,12.20
2018-04-11T09:16:28.800Z,13.17
2018-04-11T09:18:56.285Z,13.03
2018-04-11T09:21:23.741Z,12.60
2018-04-11T09:23:51.304Z,11.77
2018-04-11T09:26:18.734Z,12.07
2018-04-11T09:28:46.220Z,12.60
2018-04-11T09:31:13.651Z,12.17
2018-04-11T09:33:41.105Z,11.20
2018-04-11T09:36:09.090Z,12.30
2018-04-11T09:38:36.550Z,11.47
2018-04-11T09:41:04.014Z,12.07
2018-04-11T09:43:31.467Z,12.40
2018-04-11T09:45:59.021Z,12.67
2018-04-11T09:48:26.458Z,11.27
2018-04-11T09:50:53.898Z,13.30
2018-04-11T09:53:21.399Z,12.47
2018-04-11T09:55:48.836Z,11.47
2018-04-11T09:58:16.933Z,13.20
2018-04-11T10:00:50.063Z,14.50
2018-04-11T10:03:18.272Z,14.70
2018-04-11T10:05:45.715Z,13.83
2018-04-11T10:08:13.150Z,15.07
2018-04-11T10:10:41.379Z,14.23
2018-04-11T10:13:08.837Z,14.47
2018-04-11T10:15:36.295Z,15.70
2018-04-11T10:18:03.851Z,16.70
2018-04-11T10:20:31.411Z,15.30
2018-04-11T10:22:58.850Z,16.10
2018-04-11T10:25:26.290Z,16.37
2018-04-11T10:27:53.733Z,16.50
2018-04-11T10:30:21.189Z,18.23
2018-04-11T10:32:49.509Z,16.97
2018-04-11T10:35:16.966Z,16.83
2018-04-11T10:37:44.734Z,16.73
2018-04-11T10:40:12.310Z,15.93
2018-04-11T10:42:39.755Z,15.50
2018-04-11T10:45:07.206Z,16.20
2018-04-11T10:47:34.662Z,16.67
2018-04-11T10:50:02.122Z,16.30
2018-04-11T10:52:29.557Z,15.73
2018-04-11T10:54:57.041Z,15.83
2018-04-11T10:57:24.475Z,14.67
2018-04-11T10:59:51.950Z,14.07
2018-04-11T11:02:19.406Z,16.80
2018-04-11T11:04:46.966Z,15.80
2018-04-11T11:07:14.564Z,15.60
2018-04-11T11:09:42.021Z,14.20
2018-04-11T11:12:09.433Z,15.23
2018-04-11T11:14:36.875Z,16.20
2018-04-11T11:17:04.338Z,14.37
2018-04-11T11:19:31.793Z,14.53
2018-04-11T11:21:59.271Z,15.07
2018-04-11T11:24:26.831Z,13.70
2018-04-11T11:26:54.277Z,14.40
2018-04-11T11:29:21.723Z,13.30
2018-04-11T11:31:49.189Z,14.27
2018-04-11T11:34:16.638Z,14.53
2018-04-11T11:36:44.343Z,12.47
2018-04-11T11:39:11.839Z,12.97
2018-04-11T11:41:40.029Z,12.83
2018-04-11T11:44:07.462Z,12.60
2018-04-11T11:46:34.963Z,12.40
2018-04-11T11:49:02.418Z,12.43
2018-04-11T11:51:29.866Z,12.50
2018-04-11T11:53:57.308Z,12.77
2018-04-11T11:56:24.746Z,11.60
2018-04-11T11:58:52.247Z,10.83
2018-04-11T12:01:19.691Z,10.40
2018-04-11T12:03:47.122Z,11.50
2018-04-11T12:06:14.614Z,11.70
2018-04-11T12:08:42.055Z,12.80
2018-04-11T12:11:09.504Z,12.53
2018-04-11T12:13:36.992Z,13.27
2018-04-11T12:16:04.454Z,12.60
2018-04-11T12:18:31.895Z,13.27
2018-04-11T12:20:59.354Z,12.53
2018-04-11T12:23:26.814Z,11.80
2018-04-11T12:25:54.262Z,11.60
2018-04-11T12:28:21.700Z,12.10
2018-04-11T12:30:49.143Z,11.10
2018-04-11T12:33:16.587Z,11.23
2018-04-11T12:35:45.047Z,10.93
2018-04-11T12:38:12.583Z,11.27
2018-04-11T12:40:40.034Z,9.53
2018-04-11T12:43:08.318Z,10.97
2018-04-11T12:45:35.754Z,9.67
2018-04-11T12:48:03.194Z,9.30
2018-04-11T12:50:30.687Z,10.37
2018-04-11T12:52:58.127Z,9.10
2018-04-11T12:55:25.703Z,9.40
2018-04-11T12:57:53.146Z,9.23
2018-04-11T13:00:20.678Z,9.30
2018-04-11T13:02:48.174Z,7.97
2018-04-11T13:05:15.612Z,8.00
2018-04-11T13:07:43.091Z,7.80
2018-04-11T13:10:10.522Z,7.50
2018-04-11T13:12:38.010Z,7.70
2018-04-11T13:15:05.494Z,6.07
2018-04-11T13:17:33.018Z,5.93
2018-04-11T13:20:00.451Z,5.20
2018-04-11T13:22:27.882Z,5.60
2018-04-11T13:24:55.386Z,5.07
2018-04-11T13:27:22.823Z,5.17
2018-04-11T13:29:50.276Z,4.40
2018-04-11T13:32:17.706Z,4.80
2018-04-11T13:34:45.939Z,4.10
2018-04-11T13:37:13.370Z,3.80
2018-04-11T13:39:40.846Z,5.53
2018-04-11T13:42:08.277Z,5.00
2018-04-11T13:44:35.716Z,6.30
2018-04-11T13:47:03.476Z,5.13
2018-04-11T13:49:31.673Z,5.60
2018-04-11T13:51:59.151Z,4.50
2018-04-11T13:54:26.606Z,4.50
2018-04-11T13:56:54.065Z,3.60
2018-04-11T13:59:21.498Z,2.73
2018-04-11T14:01:48.937Z,2.47
2018-04-11T14:04:16.366Z,2.03
2018-04-11T14:06:43.802Z,2.30
2018-04-11T14:09:11.233Z,1.87
2018-04-11T14:11:38.690Z,1.97
2018-04-11T14:14:06.170Z,1.83
2018-04-11T14:16:33.604Z,1.60
2018-04-11T14:19:01.038Z,1.50
2018-04-11T14:21:28.536Z,2.03
2018-04-11T14:23:55.990Z,1.20
2018-04-11T14:26:23.439Z,1.40
2018-04-11T14:28:50.870Z,0.80
2018-04-11T14:31:18.322Z,1.10
2018-04-11T14:33:45.757Z,1.00
2018-04-11T14:36:13.972Z,1.07
2018-04-11T14:38:41.398Z,1.30
2018-04-11T14:41:09.604Z,1.47
2018-04-11T14:43:37.695Z,1.40
2018-04-11T14:46:05.254Z,2.10
2018-04-11T14:48:32.686Z,1.60
2018-04-11T14:51:00.114Z,1.37
2018-04-11T14:53:28.314Z,1.87
2018-04-11T14:55:55.795Z,1.87
2018-04-11T14:58:23.234Z,1.33
2018-04-11T15:00:50.688Z,2.00
2018-04-11T15:03:18.162Z,1.50
2018-04-11T15:05:45.630Z,1.43
2018-04-11T15:08:13.282Z,1.40
2018-04-11T15:10:40.722Z,1.43
2018-04-11T15:13:08.174Z,1.73
2018-04-11T15:15:35.602Z,1.20
2018-04-11T15:18:03.825Z,1.30
2018-04-11T15:20:31.267Z,1.37
2018-04-11T15:22:58.738Z,1.57
2018-04-11T15:25:26.194Z,1.80
2018-04-11T15:27:53.653Z,1.93
2018-04-11T15:30:21.096Z,1.50
2018-04-11T15:32:48.522Z,1.53
2018-04-11T15:35:16.727Z,1.53
2018-04-11T15:37:44.154Z,2.23
2018-04-11T15:40:12.362Z,1.50
2018-04-11T15:42:39.808Z,1.43
2018-04-11T15:45:07.238Z,1.40
2018-04-11T15:47:35.465Z,1.50
2018-04-11T15:50:02.910Z,1.20
2018-04-11T15:52:30.355Z,1.10
2018-04-11T15:54:57.788Z,1.20
2018-04-11T15:57:25.297Z,1.23
2018-04-11T15:59:52.741Z,1.23
2018-04-11T16:02:20.206Z,1.13
2018-04-11T16:04:47.659Z,1.40
2018-04-11T16:07:15.118Z,1.20
2018-04-11T16:09:42.574Z,1.50
2018-04-11T16:12:10.011Z,1.50
2018-04-11T16:14:37.486Z,1.50
2018-04-11T16:17:04.922Z,2.07
2018-04-11T16:19:32.356Z,1.90
2018-04-11T16:22:00.599Z,1.43
2018-04-11T16:24:28.042Z,1.80
2018-04-11T16:26:55.598Z,1.60
2018-04-11T16:29:23.038Z,1.73
2018-04-11T16:31:50.477Z,1.80
2018-04-11T16:34:17.992Z,1.10
2018-04-11T16:36:45.439Z,1.70
2018-04-11T16:39:13.086Z,1.90
2018-04-11T16:41:40.521Z,1.43
2018-04-11T16:44:07.994Z,1.67
2018-04-11T16:46:35.449Z,1.30
2018-04-11T16:49:02.886Z,1.90
2018-04-11T16:51:30.339Z,2.33
2018-04-11T16:53:57.765Z,1.40
2018-04-11T16:56:26.711Z,1.10
2018-04-11T16:58:54.151Z,1.70
2018-04-11T17:01:21.578Z,1.40
2018-04-11T17:03:49.022Z,1.40
2018-04-11T17:06:17.230Z,1.40
2018-04-11T17:08:44.663Z,1.53
2018-04-11T17:11:12.869Z,1.30
2018-04-11T17:13:40.306Z,1.30
2018-04-11T17:16:07.743Z,1.50
2018-04-11T17:18:37.829Z,1.57
2018-04-11T17:21:17.048Z,1.43
2018-04-11T17:23:56.321Z,1.60
2018-04-11T17:26:35.520Z,1.67
2018-04-11T17:29:14.791Z,1.23
2018-04-11T17:31:42.990Z,1.50
2018-04-11T17:34:10.481Z,1.40
2018-04-11T17:36:37.922Z,1.23
2018-04-11T17:39:05.359Z,1.30
2018-04-11T17:41:32.785Z,1.20
2018-04-11T17:44:00.226Z,1.80
2018-04-11T17:46:27.782Z,1.50
2018-04-11T17:48:55.223Z,1.17
2018-04-11T17:51:22.706Z,1.30
2018-04-11T17:53:50.124Z,1.40
2018-04-11T17:56:17.559Z,1.20
2018-04-11T17:58:44.994Z,1.30
2018-04-11T18:01:16.160Z,1.40
2018-04-11T18:03:43.662Z,1.40
2018-04-11T18:06:11.103Z,5.17
2018-04-11T18:08:38.552Z,4.67
2018-04-11T18:11:06.023Z,1.80
2018-04-11T18:13:33.467Z,1.87
2018-04-11T18:16:00.906Z,1.33
2018-04-11T18:18:28.326Z,1.10
2018-04-11T18:20:56.526Z,1.17
2018-04-11T18:23:23.958Z,1.00
2018-04-11T18:25:52.180Z,1.43
2018-04-11T18:28:19.615Z,1.30
2018-04-11T18:30:47.043Z,1.23
2018-04-11T18:33:14.486Z,1.20
2018-04-11T18:35:41.939Z,1.33
2018-04-11T18:38:09.482Z,1.37
2018-04-11T18:40:36.948Z,1.60
2018-04-11T18:43:04.409Z,1.40
2018-04-11T18:45:31.835Z,1.40
2018-04-11T18:47:59.269Z,1.40
2018-04-11T18:50:26.777Z,2.13
2018-04-11T18:52:54.219Z,1.73
2018-04-11T18:55:21.708Z,1.87
2018-04-11T18:57:49.252Z,2.33
2018-04-11T19:00:16.809Z,1.83
2018-04-11T19:02:44.370Z,2.07
2018-04-11T19:05:11.815Z,2.20
2018-04-11T19:07:39.270Z,2.20
2018-04-11T19:10:07.382Z,1.80
2018-04-11T19:12:34.831Z,2.00
2018-04-11T19:15:02.366Z,2.30
2018-04-11T19:17:29.775Z,1.53
2018-04-11T19:19:57.271Z,1.70
2018-04-11T19:22:24.739Z,1.70
2018-04-11T19:24:52.185Z,1.77
2018-04-11T19:27:19.650Z,2.40
2018-04-11T19:29:47.086Z,2.03
2018-04-11T19:32:14.532Z,2.00
2018-04-11T19:34:41.971Z,2.20
2018-04-11T19:37:09.408Z,1.93
2018-04-11T19:39:37.622Z,2.07
2018-04-11T19:42:05.080Z,1.70
2018-04-11T19:44:32.506Z,1.80
2018-04-11T19:47:00.711Z,1.77
2018-04-11T19:49:28.138Z,3.90
2018-04-11T19:51:56.344Z,4.40
2018-04-11T19:54:23.782Z,2.53
2018-04-11T19:56:51.274Z,4.00
2018-04-11T19:59:18.803Z,16.93
2018-04-11T20:01:46.174Z,2.47
2018-04-11T20:04:13.606Z,1.80
2018-04-11T20:06:41.038Z,1.43
2018-04-11T20:09:09.280Z,1.27
2018-04-11T20:11:36.743Z,1.57
2018-04-11T20:14:04.168Z,1.70
2018-04-11T20:16:31.674Z,1.20
2018-04-11T20:18:59.143Z,1.60
2018-04-11T20:21:27.346Z,1.40
2018-04-11T20:23:54.784Z,1.50
2018-04-11T20:26:22.999Z,1.40
2018-04-11T20:28:50.439Z,1.30
2018-04-11T20:31:17.875Z,1.60
2018-04-11T20:33:46.094Z,1.10
2018-04-11T20:36:13.532Z,1.20
2018-04-11T20:38:41.627Z,1.30
2018-04-11T20:41:09.102Z,1.40
2018-04-11T20:43:36.563Z,1.40
2018-04-11T20:46:03.987Z,1.23
2018-04-11T20:48:31.554Z,1.17
2018-04-11T20:50:58.990Z,1.00
2018-04-11T20:53:26.523Z,1.37
2018-04-11T20:55:53.930Z,1.03
2018-04-11T20:58:21.362Z,1.23
2018-04-11T21:00:48.802Z,1.20
2018-04-11T21:03:16.310Z,1.30
2018-04-11T21:05:43.743Z,1.10
2018-04-11T21:08:11.221Z,1.47
2018-04-11T21:10:38.670Z,1.47
2018-04-11T21:13:06.123Z,1.30
2018-04-11T21:15:33.549Z,1.20
2018-04-11T21:18:01.039Z,1.20
2018-04-11T21:20:29.165Z,1.20
2018-04-11T21:22:56.671Z,1.40
2018-04-11T21:25:24.819Z,1.60
2018-04-11T21:27:52.251Z,1.20
2018-04-11T21:30:20.906Z,1.20
2018-04-11T21:32:48.346Z,1.13
2018-04-11T21:35:15.805Z,6.90
2018-04-11T21:37:43.233Z,3.77
2018-04-11T21:40:10.710Z,8.77
2018-04-11T21:42:38.170Z,2.80
2018-04-11T21:45:05.630Z,1.87
2018-04-11T21:47:33.601Z,1.43
2018-04-11T21:50:01.043Z,1.40
2018-04-11T21:52:28.509Z,1.67
2018-04-11T21:54:55.942Z,1.67
2018-04-11T21:57:23.378Z,1.83
2018-04-11T21:59:50.885Z,1.97
2018-04-11T22:02:18.328Z,2.27
2018-04-11T22:04:45.754Z,2.23
2018-04-11T22:07:13.246Z,2.37
2018-04-11T22:09:40.708Z,2.50
2018-04-11T22:12:08.144Z,2.50
2018-04-11T22:14:35.727Z,2.30
2018-04-11T22:17:03.174Z,3.40
2018-04-11T22:19:30.615Z,2.80
2018-04-11T22:21:58.055Z,3.13
2018-04-11T22:24:25.608Z,2.90
2018-04-11T22:26:53.021Z,2.60
2018-04-11T22:29:20.671Z,3.20
2018-04-11T22:31:48.129Z,2.80
2018-04-11T22:34:15.583Z,3.23
2018-04-11T22:36:43.043Z,3.67
2018-04-11T22:39:10.491Z,4.10
2018-04-11T22:41:38.877Z,4.10
2018-04-11T22:44:06.847Z,4.27
2018-04-11T22:46:34.310Z,4.30
2018-04-11T22:49:01.758Z,4.30
2018-04-11T22:51:29.189Z,3.73
2018-04-11T22:53:56.628Z,4.53
2018-04-11T22:56:24.816Z,4.40
2018-04-11T22:58:52.722Z,5.07
2018-04-11T23:01:20.163Z,4.37
2018-04-11T23:03:47.600Z,4.87
2018-04-11T23:06:15.087Z,4.93
2018-04-11T23:08:42.534Z,8.60
2018-04-11T23:11:09.978Z,8.27
2018-04-11T23:13:37.419Z,7.20
2018-04-11T23:16:04.857Z,7.33
2018-04-11T23:18:33.062Z,6.20
2018-04-11T23:21:00.544Z,7.40
2018-04-11T23:23:27.978Z,7.90
2018-04-11T23:25:55.413Z,5.83
2018-04-11T23:28:22.954Z,5.33
2018-04-11T23:30:51.208Z,5.40
2018-04-11T23:33:18.634Z,5.30
2018-04-11T23:35:46.100Z,5.13
2018-04-11T23:38:13.534Z,5.73
2018-04-11T23:40:40.966Z,4.90
2018-04-11T23:43:09.187Z,5.57
2018-04-11T23:45:36.641Z,6.10
2018-04-11T23:48:04.078Z,4.70
2018-04-11T23:50:31.526Z,5.80
2018-04-11T23:52:59.063Z,6.07
2018-04-11T23:55:27.290Z,5.67
2018-04-11T23:57:54.752Z,5.43
